Time;durP1;ratioP1;P1;durP2;ratioP2;P2;SDS_P1;SDS_P2;PMS_P1;PMS_P2;Temp;Humidity;BMP_temperature;BMP_pressure;BME280_temperature;BME280_humidity;BME280_pressure;Samples;Min_cycle;Max_cycle;Signal;HPM_P1;HPM_P2
2023/06/27 00:01:40;0.00;0.00;0.62;0.00;0.00;0.62;2.80;1.70;;;33.10;23.80;;;;;;2223733;62;20449;-61
2023/06/27 00:04:28;0.00;0.00;0.62;0.00;0.00;0.62;3.33;2.27;;;33.10;23.80;;;;;;2224623;62;20404;-62
2023/06/27 00:07:14;0.00;0.00;0.62;0.00;0.00;0.62;2.90;1.80;;;33.10;23.80;;;;;;2224736;62;20837;-62
2023/06/27 00:09:58;0.00;0.00;0.62;0.00;0.00;0.62;3.20;2.00;;;33.10;23.90;;;;;;2224355;62;20968;-63
2023/06/27 00:12:44;0.00;0.00;0.62;0.00;0.00;0.62;2.40;1.70;;;33.10;23.90;;;;;;2224533;62;20943;-63
2023/06/27 00:15:34;0.00;0.00;0.62;0.00;0.00;0.62;2.67;1.70;;;33.10;23.80;;;;;;2223440;62;20369;-63
2023/06/27 00:18:21;0.00;0.00;0.62;0.00;0.00;0.62;2.63;1.87;;;33.10;23.90;;;;;;2224171;62;20869;-60
2023/06/27 00:21:05;0.00;0.00;0.62;0.00;0.00;0.62;3.00;2.40;;;33.00;23.80;;;;;;2224433;62;20369;-62
2023/06/27 00:23:55;0.00;0.00;0.62;0.00;0.00;0.62;3.33;1.70;;;33.00;23.80;;;;;;2223695;62;20437;-63
2023/06/27 00:26:40;0.00;0.00;0.62;0.00;0.00;0.62;2.70;1.80;;;33.00;23.80;;;;;;2224441;62;21010;-61
2023/06/27 00:29:26;0.00;0.00;0.62;0.00;0.00;0.62;2.40;1.63;;;33.00;23.90;;;;;;2223663;62;20368;-61
2023/06/27 00:32:11;0.00;0.00;0.62;0.00;0.00;0.62;2.60;1.70;;;33.00;23.90;;;;;;2224563;62;20372;-62
2023/06/27 00:34:56;0.00;0.00;0.62;0.00;0.00;0.62;3.00;2.20;;;33.00;23.90;;;;;;2224121;62;20373;-62
2023/06/27 00:37:41;0.00;0.00;0.62;0.00;0.00;0.62;2.40;1.80;;;33.00;23.90;;;;;;2223257;62;20818;-62
2023/06/27 00:40:27;0.00;0.00;0.62;0.00;0.00;0.62;3.87;2.00;;;32.90;23.80;;;;;;2223674;62;20396;-61
2023/06/27 00:43:12;0.00;0.00;0.62;0.00;0.00;0.62;2.30;1.70;;;32.90;23.80;;;;;;2224517;62;20397;-62
2023/06/27 00:45:58;0.00;0.00;0.62;0.00;0.00;0.62;2.00;1.50;;;32.90;23.80;;;;;;2223597;62;20445;-63
2023/06/27 00:48:43;0.00;0.00;0.62;0.00;0.00;0.62;6.00;1.67;;;32.90;23.80;;;;;;2223860;62;20381;-62
2023/06/27 00:51:27;0.00;0.00;0.62;0.00;0.00;0.62;2.17;1.40;;;32.90;23.80;;;;;;2224630;62;20417;-63
2023/06/27 00:54:13;0.00;0.00;0.62;0.00;0.00;0.62;3.63;2.10;;;32.90;23.80;;;;;;2224032;62;20803;-61
2023/06/27 00:57:00;0.00;0.00;0.62;0.00;0.00;0.62;2.73;1.97;;;32.90;23.80;;;;;;2223993;62;20388;-62
2023/06/27 00:59:45;0.00;0.00;0.62;0.00;0.00;0.62;3.20;1.70;;;32.90;24.40;;;;;;2223243;62;20381;-62
2023/06/27 01:02:30;0.00;0.00;0.62;0.00;0.00;0.62;2.80;1.60;;;32.90;23.80;;;;;;2224315;62;20426;-63
2023/06/27 01:05:17;0.00;0.00;0.62;0.00;0.00;0.62;2.30;1.80;;;32.90;23.80;;;;;;2224517;62;20400;-62
2023/06/27 01:08:08;0.00;0.00;0.62;0.00;0.00;0.62;2.63;2.17;;;32.90;23.80;;;;;;2223653;62;20837;-60
2023/06/27 01:11:03;0.00;0.00;0.62;0.00;0.00;0.62;3.33;1.97;;;32.90;23.80;;;;;;2224337;62;20377;-61
2023/06/27 01:13:53;0.00;0.00;0.62;0.00;0.00;0.62;3.60;2.07;;;32.90;23.80;;;;;;2224512;62;20389;-60
2023/06/27 01:16:39;0.00;0.00;0.62;0.00;0.00;0.62;3.10;1.70;;;32.80;23.80;;;;;;2224066;62;20518;-60
2023/06/27 01:19:29;0.00;0.00;0.62;0.00;0.00;0.62;2.73;1.73;;;32.80;23.80;;;;;;2224176;62;20365;-60
2023/06/27 01:22:18;0.00;0.00;0.62;0.00;0.00;0.62;2.07;1.53;;;32.80;23.80;;;;;;2223525;62;20388;-63
2023/06/27 01:25:07;0.00;0.00;0.62;0.00;0.00;0.62;1.90;1.50;;;32.80;23.80;;;;;;2224644;62;20377;-61
2023/06/27 01:27:55;0.00;0.00;0.62;0.00;0.00;0.62;3.60;1.50;;;32.80;23.80;;;;;;2224108;62;20377;-63
2023/06/27 01:30:40;0.00;0.00;0.62;0.00;0.00;0.62;3.50;1.57;;;32.80;23.80;;;;;;2223463;62;20416;-63
2023/06/27 01:33:32;0.00;0.00;0.62;0.00;0.00;0.62;1.90;1.50;;;32.80;23.80;;;;;;2224410;62;20465;-62
2023/06/27 01:36:20;0.00;0.00;0.62;0.00;0.00;0.62;2.50;1.33;;;32.80;23.80;;;;;;2223864;62;20384;-63
2023/06/27 01:39:10;0.00;0.00;0.62;0.00;0.00;0.62;2.50;1.70;;;32.70;23.70;;;;;;2223761;62;20890;-63
2023/06/27 01:42:06;0.00;0.00;0.62;0.00;0.00;0.62;2.30;1.53;;;32.70;23.80;;;;;;2223754;62;20393;-61
2023/06/27 01:44:52;0.00;0.00;0.62;0.00;0.00;0.62;2.53;1.77;;;32.70;23.70;;;;;;2223430;62;20392;-63
2023/06/27 01:47:41;0.00;0.00;0.62;0.00;0.00;0.62;2.70;1.77;;;32.70;23.70;;;;;;2224463;62;20428;-62
2023/06/27 01:50:26;0.00;0.00;0.62;0.00;0.00;0.62;3.03;1.70;;;32.70;23.70;;;;;;2223977;62;20587;-63
2023/06/27 01:53:11;0.00;0.00;0.62;0.00;0.00;0.62;2.93;1.90;;;32.70;23.80;;;;;;2223484;62;20476;-63
2023/06/27 01:55:56;0.00;0.00;0.62;0.00;0.00;0.62;2.17;1.50;;;32.70;23.80;;;;;;2224480;62;20373;-63
2023/06/27 01:58:43;0.00;0.00;0.62;0.00;0.00;0.62;2.47;1.50;;;32.70;23.80;;;;;;2222579;62;20418;-63
2023/06/27 02:01:28;0.00;0.00;0.62;0.00;0.00;0.62;2.03;1.47;;;32.70;23.70;;;;;;2223767;62;20425;-63
2023/06/27 02:04:13;0.00;0.00;0.62;0.00;0.00;0.62;2.70;1.73;;;32.70;23.70;;;;;;2224011;62;20449;-63
2023/06/27 02:06:58;0.00;0.00;0.62;0.00;0.00;0.62;1.67;1.23;;;32.60;23.70;;;;;;2223309;62;20376;-63
2023/06/27 02:09:42;0.00;0.00;0.62;0.00;0.00;0.62;2.40;1.50;;;32.60;23.70;;;;;;2223422;62;20688;-63
2023/06/27 02:12:27;0.00;0.00;0.62;0.00;0.00;0.62;2.13;1.50;;;32.60;23.70;;;;;;2223873;62;20887;-63
2023/06/27 02:15:13;0.00;0.00;0.62;0.00;0.00;0.62;2.33;1.50;;;32.60;23.70;;;;;;2223070;62;20365;-63
2023/06/27 02:17:59;0.00;0.00;0.62;0.00;0.00;0.62;2.23;1.30;;;32.60;23.70;;;;;;2224541;62;20425;-62
2023/06/27 02:20:43;0.00;0.00;0.62;0.00;0.00;0.62;2.30;1.40;;;32.60;23.70;;;;;;2223356;62;20853;-63
2023/06/27 02:23:28;0.00;0.00;0.62;0.00;0.00;0.62;2.30;1.27;;;32.60;23.70;;;;;;2224010;62;20409;-63
2023/06/27 02:26:13;0.00;0.00;0.62;0.00;0.00;0.62;2.03;1.43;;;32.60;23.70;;;;;;2223829;62;20438;-61
2023/06/27 02:29:01;0.00;0.00;0.62;0.00;0.00;0.62;2.27;1.40;;;32.60;23.70;;;;;;2223005;62;20398;-66
2023/06/27 02:31:47;0.00;0.00;0.62;0.00;0.00;0.62;1.70;1.37;;;32.60;23.70;;;;;;2223893;62;20369;-63
2023/06/27 02:34:32;0.00;0.00;0.62;0.00;0.00;0.62;2.07;1.30;;;32.60;23.70;;;;;;2224291;62;20428;-62
2023/06/27 02:37:17;0.00;0.00;0.62;0.00;0.00;0.62;1.93;1.30;;;32.50;23.60;;;;;;2223114;62;20430;-63
2023/06/27 02:40:01;0.00;0.00;0.62;0.00;0.00;0.62;1.97;1.40;;;32.50;23.60;;;;;;2223421;62;20377;-62
2023/06/27 02:42:48;0.00;0.00;0.62;0.00;0.00;0.62;2.43;1.40;;;32.50;23.60;;;;;;2223997;62;20908;-63
2023/06/27 02:45:33;0.00;0.00;0.62;0.00;0.00;0.62;2.97;1.70;;;32.50;23.60;;;;;;2221152;62;20385;-61
2023/06/27 02:48:19;0.00;0.00;0.62;0.00;0.00;0.62;2.10;1.20;;;32.50;23.60;;;;;;2223985;62;20940;-63
2023/06/27 02:51:03;0.00;0.00;0.62;0.00;0.00;0.62;2.27;1.57;;;32.50;23.60;;;;;;2223909;62;20935;-63
2023/06/27 02:53:48;0.00;0.00;0.62;0.00;0.00;0.62;2.17;1.37;;;32.50;23.60;;;;;;2224929;62;20428;-63
2023/06/27 02:56:33;0.00;0.00;0.62;0.00;0.00;0.62;2.30;1.47;;;32.50;23.60;;;;;;2224464;62;20372;-62
2023/06/27 02:59:18;0.00;0.00;0.62;0.00;0.00;0.62;2.80;1.20;;;32.50;23.60;;;;;;2223242;62;20843;-64
2023/06/27 03:02:04;0.00;0.00;0.62;0.00;0.00;0.62;2.40;1.30;;;32.50;23.60;;;;;;2224898;62;20380;-61
2023/06/27 03:04:50;0.00;0.00;0.62;0.00;0.00;0.62;1.50;1.00;;;32.50;23.60;;;;;;2221820;62;20847;-63
2023/06/27 03:07:35;0.00;0.00;0.62;0.00;0.00;0.62;1.70;1.20;;;32.40;23.50;;;;;;2224829;62;20373;-63
2023/06/27 03:10:20;0.00;0.00;0.62;0.00;0.00;0.62;1.90;1.20;;;32.40;23.50;;;;;;2223941;62;20377;-62
2023/06/27 03:13:05;0.00;0.00;0.62;0.00;0.00;0.62;1.93;1.20;;;32.40;23.50;;;;;;2223577;62;20408;-62
2023/06/27 03:15:50;0.00;0.00;0.62;0.00;0.00;0.62;1.60;1.13;;;32.40;23.50;;;;;;2224281;62;20369;-61
2023/06/27 03:18:36;0.00;0.00;0.62;0.00;0.00;0.62;2.70;1.30;;;32.40;23.50;;;;;;2223991;62;20369;-62
2023/06/27 03:21:22;0.00;0.00;0.62;0.00;0.00;0.62;2.43;1.30;;;32.40;23.50;;;;;;2223852;62;20839;-60
2023/06/27 03:24:07;0.00;0.00;0.62;0.00;0.00;0.62;2.00;1.50;;;32.40;23.50;;;;;;2224686;62;20389;-61
2023/06/27 03:26:53;0.00;0.00;0.62;0.00;0.00;0.62;2.17;1.37;;;32.40;23.50;;;;;;2224228;62;20445;-62
2023/06/27 03:29:38;0.00;0.00;0.62;0.00;0.00;0.62;2.53;1.20;;;32.30;23.40;;;;;;2223526;62;20464;-62
2023/06/27 03:32:23;0.00;0.00;0.62;0.00;0.00;0.62;2.43;1.40;;;32.30;23.40;;;;;;2224276;62;20418;-60
2023/06/27 03:35:08;0.00;0.00;0.62;0.00;0.00;0.62;1.80;1.20;;;32.30;23.40;;;;;;2223689;62;20380;-63
2023/06/27 03:37:54;0.00;0.00;0.62;0.00;0.00;0.62;2.50;1.20;;;32.30;23.40;;;;;;2224951;62;20484;-62
2023/06/27 03:40:40;0.00;0.00;0.62;0.00;0.00;0.62;1.80;1.20;;;32.30;23.50;;;;;;2224056;62;20369;-60
2023/06/27 03:43:25;0.00;0.00;0.62;0.00;0.00;0.62;2.20;1.40;;;32.30;23.50;;;;;;2223464;62;20430;-63
2023/06/27 03:46:14;0.00;0.00;0.62;0.00;0.00;0.62;2.40;1.20;;;32.30;23.40;;;;;;2224278;62;20449;-65
2023/06/27 03:48:59;0.00;0.00;0.62;0.00;0.00;0.62;2.13;1.47;;;32.30;23.40;;;;;;2224345;62;20369;-62
2023/06/27 03:51:43;0.00;0.00;0.62;0.00;0.00;0.62;2.10;1.40;;;32.30;23.40;;;;;;2223983;62;20409;-62
2023/06/27 03:54:29;0.00;0.00;0.62;0.00;0.00;0.62;2.00;1.40;;;32.30;23.40;;;;;;2224730;62;20855;-60
2023/06/27 03:57:14;0.00;0.00;0.62;0.00;0.00;0.62;2.90;1.90;;;32.20;23.40;;;;;;2223609;62;20897;-61
2023/06/27 03:59:59;0.00;0.00;0.62;0.00;0.00;0.62;3.80;1.97;;;32.20;23.40;;;;;;2224000;62;21013;-61
2023/06/27 04:02:44;0.00;0.00;0.62;0.00;0.00;0.62;2.37;1.70;;;32.20;23.40;;;;;;2224088;62;20404;-63
2023/06/27 04:05:30;0.00;0.00;0.62;0.00;0.00;0.62;2.43;2.10;;;32.20;23.40;;;;;;2223308;62;21021;-62
2023/06/27 04:08:15;0.00;0.00;0.62;0.00;0.00;0.62;2.47;1.87;;;32.20;23.40;;;;;;2223848;62;20376;-63
2023/06/27 04:11:01;0.00;0.00;0.62;0.00;0.00;0.62;4.90;2.27;;;32.20;23.40;;;;;;2224136;62;20373;-65
2023/06/27 04:13:46;0.00;0.00;0.62;0.00;0.00;0.62;3.00;2.27;;;32.20;23.40;;;;;;2223487;62;20421;-62
2023/06/27 04:16:31;0.00;0.00;0.62;0.00;0.00;0.62;3.07;2.60;;;32.20;24.00;;;;;;2224124;62;20388;-61
2023/06/27 04:19:16;0.00;0.00;0.62;0.00;0.00;0.62;3.40;2.87;;;32.20;23.50;;;;;;2223400;62;20990;-61
2023/06/27 04:22:00;0.00;0.00;0.62;0.00;0.00;0.62;4.47;2.97;;;32.20;23.50;;;;;;2224074;62;20473;-63
2023/06/27 04:24:45;0.00;0.00;0.62;0.00;0.00;0.62;3.60;3.00;;;32.20;23.50;;;;;;2224645;62;20465;-63
2023/06/27 04:27:31;0.00;0.00;0.62;0.00;0.00;0.62;3.67;2.80;;;32.20;23.50;;;;;;2223288;62;20445;-61
2023/06/27 04:30:17;0.00;0.00;0.62;0.00;0.00;0.62;3.50;3.13;;;32.10;23.40;;;;;;2224333;62;20793;-62
2023/06/27 04:33:03;0.00;0.00;0.62;0.00;0.00;0.62;4.30;2.60;;;32.10;23.40;;;;;;2224543;62;20960;-62
2023/06/27 04:35:48;0.00;0.00;0.62;0.00;0.00;0.62;3.70;2.93;;;32.10;23.40;;;;;;2223819;62;20393;-63
2023/06/27 04:38:37;0.00;0.00;0.62;0.00;0.00;0.62;4.10;3.47;;;32.10;24.00;;;;;;2224074;62;20408;-65
2023/06/27 04:41:22;0.00;0.00;0.62;0.00;0.00;0.62;4.03;3.53;;;32.10;23.50;;;;;;2223747;62;20380;-63
2023/06/27 04:44:09;0.00;0.00;0.62;0.00;0.00;0.62;4.20;3.10;;;32.10;23.50;;;;;;2224046;62;20779;-63
2023/06/27 04:46:54;0.00;0.00;0.62;0.00;0.00;0.62;4.33;3.70;;;32.10;23.50;;;;;;2224375;62;20429;-62
2023/06/27 04:49:39;0.00;0.00;0.62;0.00;0.00;0.62;3.60;3.27;;;32.10;23.50;;;;;;2223001;62;20421;-63
2023/06/27 04:52:23;0.00;0.00;0.62;0.00;0.00;0.62;4.50;3.50;;;32.10;23.50;;;;;;2224596;62;20369;-62
2023/06/27 04:55:09;0.00;0.00;0.62;0.00;0.00;0.62;3.80;3.40;;;32.10;23.50;;;;;;2224474;62;20896;-61
2023/06/27 04:57:54;0.00;0.00;0.62;0.00;0.00;0.62;3.97;2.97;;;32.10;24.10;;;;;;2223643;62;20376;-63
2023/06/27 05:00:39;0.00;0.00;0.62;0.00;0.00;0.62;5.30;4.00;;;32.10;23.50;;;;;;2224023;62;20986;-64
2023/06/27 05:03:24;0.00;0.00;0.62;0.00;0.00;0.62;4.40;3.03;;;32.10;23.50;;;;;;2224349;62;20449;-61
2023/06/27 05:06:09;0.00;0.00;0.62;0.00;0.00;0.62;4.10;3.30;;;32.10;23.50;;;;;;2224532;62;20418;-62
2023/06/27 05:08:54;0.00;0.00;0.62;0.00;0.00;0.62;4.23;3.70;;;32.10;23.50;;;;;;2224093;62;20373;-66
2023/06/27 05:11:39;0.00;0.00;0.62;0.00;0.00;0.62;4.17;3.43;;;32.10;23.50;;;;;;2223594;62;20405;-63
2023/06/27 05:14:23;0.00;0.00;0.62;0.00;0.00;0.62;3.70;3.20;;;32.10;23.60;;;;;;2224570;62;20525;-61
2023/06/27 05:17:09;0.00;0.00;0.62;0.00;0.00;0.62;4.27;2.90;;;32.10;23.50;;;;;;2224461;62;20414;-63
2023/06/27 05:19:54;0.00;0.00;0.62;0.00;0.00;0.62;3.90;2.93;;;32.00;23.50;;;;;;2223331;62;20417;-62
2023/06/27 05:22:39;0.00;0.00;0.62;0.00;0.00;0.62;3.70;3.20;;;32.10;23.60;;;;;;2224106;62;20489;-63
2023/06/27 05:25:23;0.00;0.00;0.62;0.00;0.00;0.62;4.30;3.47;;;32.00;23.50;;;;;;2224469;62;20369;-61
2023/06/27 05:28:08;0.00;0.00;0.62;0.00;0.00;0.62;3.70;3.37;;;32.00;23.50;;;;;;2224395;62;20935;-63
2023/06/27 05:30:53;0.00;0.00;0.62;0.00;0.00;0.62;3.20;2.77;;;32.00;23.50;;;;;;2224110;62;20776;-61
2023/06/27 05:33:39;0.00;0.00;0.62;0.00;0.00;0.62;3.93;3.40;;;32.00;23.60;;;;;;2223226;62;20398;-63
2023/06/27 05:36:23;0.00;0.00;0.62;0.00;0.00;0.62;3.73;3.40;;;32.00;23.60;;;;;;2224408;62;20381;-64
2023/06/27 05:39:08;0.00;0.00;0.62;0.00;0.00;0.62;4.90;4.10;;;32.00;23.60;;;;;;2223965;62;20418;-63
2023/06/27 05:41:53;0.00;0.00;0.62;0.00;0.00;0.62;4.03;3.63;;;32.00;23.60;;;;;;2223569;62;20957;-60
2023/06/27 05:44:37;0.00;0.00;0.62;0.00;0.00;0.62;4.53;4.00;;;32.00;23.60;;;;;;2224268;62;20432;-64
2023/06/27 05:47:22;0.00;0.00;0.62;0.00;0.00;0.62;5.30;3.80;;;32.00;23.60;;;;;;2224261;62;20377;-62
2023/06/27 05:50:09;0.00;0.00;0.62;0.00;0.00;0.62;4.17;3.60;;;32.00;23.60;;;;;;2222778;62;20401;-62
2023/06/27 05:52:54;0.00;0.00;0.62;0.00;0.00;0.62;4.07;3.60;;;32.00;23.60;;;;;;2224333;62;20689;-63
2023/06/27 05:55:39;0.00;0.00;0.62;0.00;0.00;0.62;3.60;3.13;;;32.00;24.10;;;;;;2223213;62;20749;-63
2023/06/27 05:58:24;0.00;0.00;0.62;0.00;0.00;0.62;5.07;3.90;;;32.00;23.60;;;;;;2223684;62;20510;-61
2023/06/27 06:01:09;0.00;0.00;0.62;0.00;0.00;0.62;3.90;3.50;;;32.00;23.60;;;;;;2223948;62;20368;-61
2023/06/27 06:03:53;0.00;0.00;0.62;0.00;0.00;0.62;3.90;3.37;;;32.00;23.60;;;;;;2223164;62;20489;-58
2023/06/27 06:06:40;0.00;0.00;0.62;0.00;0.00;0.62;3.67;3.10;;;32.00;23.60;;;;;;2224029;62;20912;-61
2023/06/27 06:09:25;0.00;0.00;0.62;0.00;0.00;0.62;3.30;3.00;;;32.00;23.60;;;;;;2223574;62;20377;-61
2023/06/27 06:12:10;0.00;0.00;0.62;0.00;0.00;0.62;3.57;3.13;;;32.00;23.60;;;;;;2223326;62;20408;-61
2023/06/27 06:14:54;0.00;0.00;0.62;0.00;0.00;0.62;5.00;4.27;;;32.00;23.60;;;;;;2224102;62;20392;-62
2023/06/27 06:17:39;0.00;0.00;0.62;0.00;0.00;0.62;3.63;3.03;;;32.00;23.60;;;;;;2223144;62;20406;-62
2023/06/27 06:20:24;0.00;0.00;0.62;0.00;0.00;0.62;4.90;4.07;;;32.00;23.60;;;;;;2223733;62;20453;-61
2023/06/27 06:23:10;0.00;0.00;0.62;0.00;0.00;0.62;3.53;3.23;;;32.00;23.60;;;;;;2223756;62;20401;-63
2023/06/27 06:25:55;0.00;0.00;0.62;0.00;0.00;0.62;3.93;3.33;;;32.00;23.60;;;;;;2223845;62;20404;-64
2023/06/27 06:28:40;0.00;0.00;0.62;0.00;0.00;0.62;4.10;3.63;;;32.00;23.60;;;;;;2224469;62;20408;-62
2023/06/27 06:31:24;0.00;0.00;0.62;0.00;0.00;0.62;4.77;3.67;;;32.00;23.60;;;;;;2224762;62;20377;-62
2023/06/27 06:34:09;0.00;0.00;0.62;0.00;0.00;0.62;3.83;3.30;;;32.00;23.60;;;;;;2223905;62;20425;-62
2023/06/27 06:36:53;0.00;0.00;0.62;0.00;0.00;0.62;3.37;3.07;;;31.90;23.50;;;;;;2224837;62;20376;-60
2023/06/27 06:39:41;0.00;0.00;0.62;0.00;0.00;0.62;3.70;3.17;;;32.00;23.60;;;;;;2224073;62;20422;-64
2023/06/27 06:42:26;0.00;0.00;0.62;0.00;0.00;0.62;3.50;2.80;;;32.00;23.60;;;;;;2224521;62;20401;-61
2023/06/27 06:45:11;0.00;0.00;0.62;0.00;0.00;0.62;3.17;2.87;;;32.00;23.60;;;;;;2224882;62;20952;-62
2023/06/27 06:47:55;0.00;0.00;0.62;0.00;0.00;0.62;3.10;2.80;;;31.90;23.50;;;;;;2205949;62;1132369;-62
2023/06/27 06:50:41;0.00;0.00;0.62;0.00;0.00;0.62;2.70;2.10;;;31.90;23.50;;;;;;2224957;62;20407;-62
2023/06/27 06:53:25;0.00;0.00;0.62;0.00;0.00;0.62;3.20;2.90;;;31.90;23.50;;;;;;2224825;62;20469;-62
2023/06/27 06:56:12;0.00;0.00;0.62;0.00;0.00;0.62;3.10;2.50;;;32.00;23.60;;;;;;2224288;62;20373;-62
2023/06/27 06:58:56;0.00;0.00;0.62;0.00;0.00;0.62;3.10;2.80;;;31.90;23.50;;;;;;2224582;62;20428;-62
2023/06/27 07:01:41;0.00;0.00;0.62;0.00;0.00;0.62;2.97;2.53;;;31.90;23.60;;;;;;2224792;62;20392;-60
2023/06/27 07:04:26;0.00;0.00;0.62;0.00;0.00;0.62;5.27;2.70;;;32.00;23.60;;;;;;2224906;62;20397;-62
2023/06/27 07:07:11;0.00;0.00;0.62;0.00;0.00;0.62;2.77;2.13;;;31.90;23.50;;;;;;2224865;62;20418;-60
2023/06/27 07:09:56;0.00;0.00;0.62;0.00;0.00;0.62;3.17;2.87;;;31.90;23.50;;;;;;2223563;62;20409;-62
2023/06/27 07:12:42;0.00;0.00;0.62;0.00;0.00;0.62;3.23;2.60;;;31.90;23.50;;;;;;2224965;62;20380;-61
2023/06/27 07:15:28;0.00;0.00;0.62;0.00;0.00;0.62;3.23;2.57;;;32.00;23.60;;;;;;2224825;62;20487;-62
2023/06/27 07:18:13;0.00;0.00;0.62;0.00;0.00;0.62;2.97;2.40;;;31.90;23.50;;;;;;2223591;62;20372;-63
2023/06/27 07:20:58;0.00;0.00;0.62;0.00;0.00;0.62;4.00;3.40;;;31.90;23.60;;;;;;2221502;62;20510;-61
2023/06/27 07:23:43;0.00;0.00;0.62;0.00;0.00;0.62;3.17;2.47;;;32.00;23.60;;;;;;2224476;62;20814;-61
2023/06/27 07:26:27;0.00;0.00;0.62;0.00;0.00;0.62;3.20;2.50;;;31.90;23.60;;;;;;2224439;62;20836;-62
2023/06/27 07:29:13;0.00;0.00;0.62;0.00;0.00;0.62;3.13;2.60;;;31.90;23.50;;;;;;2224221;62;20466;-60
2023/06/27 07:31:58;0.00;0.00;0.62;0.00;0.00;0.62;4.00;2.80;;;32.00;23.60;;;;;;2223920;62;20381;-62
2023/06/27 07:34:43;0.00;0.00;0.62;0.00;0.00;0.62;2.87;2.20;;;31.90;23.60;;;;;;2224725;62;20437;-63
2023/06/27 07:37:27;0.00;0.00;0.62;0.00;0.00;0.62;3.77;2.87;;;32.00;23.60;;;;;;2224711;62;20421;-63
2023/06/27 07:40:12;0.00;0.00;0.62;0.00;0.00;0.62;2.90;2.60;;;31.90;23.60;;;;;;2223533;62;20408;-64
2023/06/27 07:42:56;0.00;0.00;0.62;0.00;0.00;0.62;4.03;2.80;;;31.90;23.60;;;;;;2224473;62;20396;-62
2023/06/27 07:45:43;0.00;0.00;0.62;0.00;0.00;0.62;2.93;2.50;;;31.90;23.60;;;;;;2224882;62;20391;-63
2023/06/27 07:48:27;0.00;0.00;0.62;0.00;0.00;0.62;4.57;3.10;;;31.90;23.60;;;;;;2223747;62;20420;-63
2023/06/27 07:51:12;0.00;0.00;0.62;0.00;0.00;0.62;3.60;2.80;;;31.90;23.60;;;;;;2224022;62;20414;-63
2023/06/27 07:54:00;0.00;0.00;0.62;0.00;0.00;0.62;3.60;2.93;;;31.90;23.60;;;;;;2223897;62;20720;-62
2023/06/27 07:56:44;0.00;0.00;0.62;0.00;0.00;0.62;3.10;2.80;;;32.00;23.70;;;;;;2224748;62;20434;-61
2023/06/27 07:59:29;0.00;0.00;0.62;0.00;0.00;0.62;3.37;2.83;;;31.90;23.60;;;;;;2224187;62;20377;-63
2023/06/27 08:02:15;0.00;0.00;0.62;0.00;0.00;0.62;3.03;2.60;;;31.90;23.60;;;;;;2223709;62;20976;-62
2023/06/27 08:05:00;0.00;0.00;0.62;0.00;0.00;0.62;3.60;2.80;;;32.00;23.70;;;;;;2224691;62;20385;-63
2023/06/27 08:07:45;0.00;0.00;0.62;0.00;0.00;0.62;3.30;3.00;;;31.90;23.70;;;;;;2224743;62;20380;-63
2023/06/27 08:10:30;0.00;0.00;0.62;0.00;0.00;0.62;3.30;2.67;;;31.90;23.60;;;;;;2223658;62;20377;-63
2023/06/27 08:13:15;0.00;0.00;0.62;0.00;0.00;0.62;2.93;2.47;;;31.90;23.60;;;;;;2224493;62;20858;-63
2023/06/27 08:15:59;0.00;0.00;0.62;0.00;0.00;0.62;3.70;2.77;;;32.00;23.70;;;;;;2223872;62;20381;-63
2023/06/27 08:18:45;0.00;0.00;0.62;0.00;0.00;0.62;3.60;3.03;;;31.90;23.60;;;;;;2221367;62;20368;-63
2023/06/27 08:21:30;0.00;0.00;0.62;0.00;0.00;0.62;4.03;3.10;;;31.90;23.60;;;;;;2224848;62;20426;-62
2023/06/27 08:24:15;0.00;0.00;0.62;0.00;0.00;0.62;3.03;2.70;;;31.90;23.70;;;;;;2223504;62;20446;-63
2023/06/27 08:26:59;0.00;0.00;0.62;0.00;0.00;0.62;2.93;2.07;;;31.90;23.70;;;;;;2224402;62;20373;-63
2023/06/27 08:29:45;0.00;0.00;0.62;0.00;0.00;0.62;3.60;2.50;;;31.90;23.60;;;;;;2224166;62;20418;-62
2023/06/27 08:32:30;0.00;0.00;0.62;0.00;0.00;0.62;3.63;2.60;;;31.90;23.70;;;;;;2223603;62;20369;-61
2023/06/27 08:35:16;0.00;0.00;0.62;0.00;0.00;0.62;3.00;2.60;;;31.90;23.60;;;;;;2224518;62;20369;-63
2023/06/27 08:38:01;0.00;0.00;0.62;0.00;0.00;0.62;2.60;2.20;;;32.00;23.70;;;;;;2224741;62;20409;-63
2023/06/27 08:40:48;0.00;0.00;0.62;0.00;0.00;0.62;2.63;2.20;;;31.90;23.60;;;;;;2224223;62;20806;-63
2023/06/27 08:43:33;0.00;0.00;0.62;0.00;0.00;0.62;2.83;2.30;;;31.90;23.70;;;;;;2221401;62;20408;-63
2023/06/27 08:46:21;0.00;0.00;0.62;0.00;0.00;0.62;2.83;2.40;;;32.00;23.70;;;;;;2223744;62;20390;-63
2023/06/27 08:49:08;0.00;0.00;0.62;0.00;0.00;0.62;2.40;2.00;;;32.00;23.70;;;;;;2223879;62;20384;-63
2023/06/27 08:52:00;0.00;0.00;0.62;0.00;0.00;0.62;3.37;2.40;;;32.00;23.70;;;;;;2224546;62;20791;-63
2023/06/27 08:54:53;0.00;0.00;0.62;0.00;0.00;0.62;2.23;2.00;;;31.90;23.60;;;;;;2223821;62;20962;-63
2023/06/27 08:57:39;0.00;0.00;0.62;0.00;0.00;0.62;2.60;1.90;;;32.00;23.70;;;;;;2224497;62;20373;-64
2023/06/27 09:00:26;0.00;0.00;0.62;0.00;0.00;0.62;2.80;2.10;;;32.00;23.70;;;;;;2223345;62;20372;-65
2023/06/27 09:03:12;0.00;0.00;0.62;0.00;0.00;0.62;3.30;2.27;;;32.00;23.70;;;;;;2224349;62;20397;-63
2023/06/27 09:05:57;0.00;0.00;0.62;0.00;0.00;0.62;2.50;2.23;;;32.00;23.70;;;;;;2224163;62;20372;-62
2023/06/27 09:08:43;0.00;0.00;0.62;0.00;0.00;0.62;3.40;2.77;;;32.00;23.70;;;;;;2223309;62;20369;-63
2023/06/27 09:11:29;0.00;0.00;0.62;0.00;0.00;0.62;3.33;2.40;;;32.00;23.70;;;;;;2224460;62;20377;-63
2023/06/27 09:14:14;0.00;0.00;0.62;0.00;0.00;0.62;2.93;2.20;;;32.00;23.70;;;;;;2224617;62;20437;-63
2023/06/27 09:16:59;0.00;0.00;0.62;0.00;0.00;0.62;3.13;2.00;;;32.00;23.70;;;;;;2220533;62;20739;-63
2023/06/27 09:19:43;0.00;0.00;0.62;0.00;0.00;0.62;3.00;2.50;;;32.00;23.70;;;;;;2224180;62;20421;-63
2023/06/27 09:22:29;0.00;0.00;0.62;0.00;0.00;0.62;3.30;2.70;;;32.00;23.60;;;;;;2223890;62;20490;-63
2023/06/27 09:25:19;0.00;0.00;0.62;0.00;0.00;0.62;2.70;1.93;;;32.00;23.70;;;;;;2224366;62;20377;-62
2023/06/27 09:28:16;0.00;0.00;0.62;0.00;0.00;0.62;3.43;2.27;;;32.00;23.60;;;;;;2224536;62;20425;-63
2023/06/27 09:31:01;0.00;0.00;0.62;0.00;0.00;0.62;3.23;2.60;;;32.00;23.60;;;;;;2223439;62;20453;-61
2023/06/27 09:33:47;0.00;0.00;0.62;0.00;0.00;0.62;2.87;1.97;;;32.00;23.60;;;;;;2224645;62;20388;-62
2023/06/27 09:36:35;0.00;0.00;0.62;0.00;0.00;0.62;2.57;2.07;;;32.00;23.60;;;;;;2221411;62;20369;-62
2023/06/27 09:39:26;0.00;0.00;0.62;0.00;0.00;0.62;2.07;1.80;;;32.00;23.60;;;;;;2223332;62;20511;-61
2023/06/27 09:42:13;0.00;0.00;0.62;0.00;0.00;0.62;2.23;1.93;;;32.00;23.60;;;;;;2224270;62;20373;-61
2023/06/27 09:45:14;0.00;0.00;0.62;0.00;0.00;0.62;2.80;2.10;;;32.00;23.60;;;;;;2223778;62;20493;-62
2023/06/27 09:47:59;0.00;0.00;0.62;0.00;0.00;0.62;3.10;2.57;;;32.00;23.60;;;;;;2224198;62;20435;-61
2023/06/27 09:50:43;0.00;0.00;0.62;0.00;0.00;0.62;2.77;2.20;;;32.00;23.60;;;;;;2224361;62;20369;-60
2023/06/27 09:53:30;0.00;0.00;0.62;0.00;0.00;0.62;2.77;2.33;;;32.00;23.60;;;;;;2223613;62;20497;-62
2023/06/27 09:56:15;0.00;0.00;0.62;0.00;0.00;0.62;3.20;2.67;;;32.00;23.60;;;;;;2224510;62;20451;-60
2023/06/27 09:59:08;0.00;0.00;0.62;0.00;0.00;0.62;2.87;2.57;;;32.00;23.60;;;;;;2223750;62;20398;-63
2023/06/27 10:01:54;0.00;0.00;0.62;0.00;0.00;0.62;3.17;2.70;;;32.00;23.60;;;;;;2223927;62;20404;-63
2023/06/27 10:04:39;0.00;0.00;0.62;0.00;0.00;0.62;3.33;2.60;;;32.00;23.60;;;;;;2224148;62;20410;-63
2023/06/27 10:07:24;0.00;0.00;0.62;0.00;0.00;0.62;3.13;2.33;;;32.00;23.60;;;;;;2223596;62;20904;-62
2023/06/27 10:10:10;0.00;0.00;0.62;0.00;0.00;0.62;2.60;2.07;;;32.00;23.60;;;;;;2223858;62;20369;-61
2023/06/27 10:12:55;0.00;0.00;0.62;0.00;0.00;0.62;3.27;2.50;;;32.00;23.60;;;;;;2224320;62;20389;-62
2023/06/27 10:15:41;0.00;0.00;0.62;0.00;0.00;0.62;2.70;2.20;;;32.00;23.60;;;;;;2223595;62;20445;-60
2023/06/27 10:18:27;0.00;0.00;0.62;0.00;0.00;0.62;2.50;2.30;;;32.10;24.20;;;;;;2224182;62;20385;-62
2023/06/27 10:21:12;0.00;0.00;0.62;0.00;0.00;0.62;3.03;2.27;;;32.00;23.60;;;;;;2224012;62;20796;-62
2023/06/27 10:24:00;0.00;0.00;0.62;0.00;0.00;0.62;3.10;2.70;;;32.10;23.60;;;;;;2223509;62;20542;-61
2023/06/27 10:26:50;0.00;0.00;0.62;0.00;0.00;0.62;2.70;2.27;;;32.10;23.70;;;;;;2224122;62;20377;-63
2023/06/27 10:29:40;0.00;0.00;0.62;0.00;0.00;0.62;2.93;2.63;;;32.10;23.70;;;;;;2223176;62;20373;-63
2023/06/27 10:32:46;0.00;0.00;0.62;0.00;0.00;0.62;3.30;2.23;;;32.10;23.60;;;;;;2224329;62;20374;-62
2023/06/27 10:35:30;0.00;0.00;0.62;0.00;0.00;0.62;2.67;2.40;;;32.10;23.70;;;;;;2224348;62;20376;-62
2023/06/27 10:38:18;0.00;0.00;0.62;0.00;0.00;0.62;2.53;2.20;;;32.00;23.60;;;;;;2222996;62;20431;-62
2023/06/27 10:41:22;0.00;0.00;0.62;0.00;0.00;0.62;2.63;2.20;;;32.10;23.60;;;;;;2224350;62;20381;-62
2023/06/27 10:44:10;0.00;0.00;0.62;0.00;0.00;0.62;3.37;2.03;;;32.00;23.60;;;;;;2223278;62;20415;-63
2023/06/27 10:47:29;0.00;0.00;0.62;0.00;0.00;0.62;2.97;2.10;;;32.10;23.70;;;;;;2224300;62;20377;-63
2023/06/27 10:50:19;0.00;0.00;0.62;0.00;0.00;0.62;2.97;2.40;;;32.00;23.60;;;;;;2214892;62;20386;-62
2023/06/27 10:53:07;0.00;0.00;0.62;0.00;0.00;0.62;2.87;2.57;;;32.00;23.60;;;;;;2218610;62;20396;-61
2023/06/27 10:55:55;0.00;0.00;0.62;0.00;0.00;0.62;3.03;2.47;;;32.10;23.70;;;;;;2224200;62;20414;-62